Time;durP1;ratioP1;P1;durP2;ratioP2;P2;SDS_P1;SDS_P2;PMS_P1;PMS_P2;Temp;Humidity;BMP_temperature;BMP_pressure;BME280_temperature;BME280_humidity;BME280_pressure;Samples;Min_cycle;Max_cycle;Signal;HPM_P1;HPM_P2
2023/08/14 00:00:43;;;;;;;2.58;1.00;;;22.90;73.00;;;;;;5073490;28;20048;-63
2023/08/14 00:03:09;;;;;;;2.65;1.10;;;22.90;73.00;;;;;;5074971;28;20083;-62
2023/08/14 00:05:34;;;;;;;1.77;1.00;;;22.90;73.00;;;;;;5074525;28;20044;-62
2023/08/14 00:08:00;;;;;;;1.45;0.90;;;22.90;73.00;;;;;;5073833;28;20127;-63
2023/08/14 00:10:26;;;;;;;2.40;1.23;;;22.90;73.00;;;;;;5073333;28;20044;-62
2023/08/14 00:12:52;;;;;;;1.35;0.90;;;22.90;73.00;;;;;;5074305;28;20124;-62
2023/08/14 00:15:17;;;;;;;2.63;0.98;;;22.90;73.00;;;;;;5072767;28;20127;-63
2023/08/14 00:17:43;;;;;;;2.67;1.00;;;22.90;73.00;;;;;;5074413;28;20506;-62
2023/08/14 00:20:09;;;;;;;1.40;0.80;;;22.90;72.90;;;;;;5074551;28;20532;-63
2023/08/14 00:22:35;;;;;;;2.88;1.33;;;22.90;72.90;;;;;;5073557;28;20048;-63
2023/08/14 00:25:00;;;;;;;3.47;1.10;;;22.90;72.90;;;;;;5074386;28;20123;-62
2023/08/14 00:27:26;;;;;;;1.75;1.00;;;22.90;72.90;;;;;;5074107;28;20047;-62
2023/08/14 00:29:51;;;;;;;1.98;0.90;;;22.90;72.90;;;;;;5073348;28;20040;-62
2023/08/14 00:32:17;;;;;;;2.83;0.98;;;22.90;72.90;;;;;;5074315;28;20048;-63
2023/08/14 00:34:42;;;;;;;2.05;1.05;;;22.80;72.90;;;;;;5073973;28;20040;-62
2023/08/14 00:37:08;;;;;;;1.92;0.90;;;22.80;72.80;;;;;;5073591;28;20048;-62
2023/08/14 00:39:34;;;;;;;2.67;1.00;;;22.80;72.80;;;;;;5073745;28;20040;-62
2023/08/14 00:41:59;;;;;;;2.38;1.02;;;22.80;72.80;;;;;;5073789;28;20048;-62
2023/08/14 00:44:25;;;;;;;2.22;1.15;;;22.80;72.80;;;;;;5073716;28;20508;-63
2023/08/14 00:46:50;;;;;;;1.58;0.95;;;22.80;72.80;;;;;;5072363;28;20131;-62
2023/08/14 00:49:16;;;;;;;2.05;0.90;;;22.80;72.80;;;;;;5073333;28;20090;-62
2023/08/14 00:51:42;;;;;;;1.50;1.02;;;22.80;72.80;;;;;;5055658;28;20048;-62
2023/08/14 00:54:07;;;;;;;1.73;0.88;;;22.80;72.80;;;;;;5073339;28;20040;-62
2023/08/14 00:56:33;;;;;;;1.80;0.90;;;22.80;72.80;;;;;;5072041;28;20132;-62
2023/08/14 00:58:59;;;;;;;1.75;1.00;;;22.80;72.80;;;;;;5072464;28;20048;-63
2023/08/14 01:01:24;;;;;;;2.58;1.20;;;22.80;72.70;;;;;;5072659;28;20048;-62
2023/08/14 01:03:50;;;;;;;2.05;0.77;;;22.80;72.70;;;;;;5071515;28;20123;-63
2023/08/14 01:06:15;;;;;;;2.05;0.90;;;22.80;72.70;;;;;;5073560;28;20083;-62
2023/08/14 01:08:41;;;;;;;1.30;0.80;;;22.80;72.70;;;;;;5073081;28;20033;-63
2023/08/14 01:11:13;;;;;;;1.58;0.90;;;22.80;72.70;;;;;;5071812;28;20052;-62
2023/08/14 01:14:23;;;;;;;4.18;1.15;;;22.80;72.70;;;;;;5072980;28;20055;-62
2023/08/14 01:16:53;;;;;;;2.17;0.85;;;22.80;72.60;;;;;;5034270;28;20132;-62
2023/08/14 01:19:21;;;;;;;1.52;0.95;;;22.80;72.70;;;;;;5084267;28;20049;-62
2023/08/14 01:22:10;;;;;;;1.75;0.93;;;22.80;72.70;;;;;;5072615;28;20079;-62
2023/08/14 01:24:59;;;;;;;2.85;0.88;;;22.80;72.60;;;;;;5072121;28;20046;-62
2023/08/14 01:27:25;;;;;;;1.25;0.80;;;22.80;72.70;;;;;;5073198;28;20053;-62
2023/08/14 01:29:58;;;;;;;2.05;0.88;;;22.80;72.70;;;;;;5071630;28;20043;-61
2023/08/14 01:32:23;;;;;;;1.90;0.90;;;22.70;72.50;;;;;;5072044;28;20040;-62
2023/08/14 01:34:49;;;;;;;2.42;0.80;;;22.80;72.60;;;;;;5072834;28;20048;-62
2023/08/14 01:37:34;;;;;;;1.27;0.90;;;22.70;72.50;;;;;;5071443;28;20044;-62
2023/08/14 01:40:06;;;;;;;2.25;1.00;;;22.70;72.50;;;;;;5070969;28;20123;-62
2023/08/14 01:42:36;;;;;;;2.50;1.00;;;22.70;72.50;;;;;;5071834;28;20053;-62
2023/08/14 01:45:07;;;;;;;2.22;0.80;;;22.70;72.50;;;;;;5071180;28;20040;-62
2023/08/14 01:47:33;;;;;;;1.65;0.80;;;22.70;72.50;;;;;;5053464;28;20174;-63
2023/08/14 01:49:59;;;;;;;2.50;0.80;;;22.70;72.50;;;;;;5071336;28;20083;-62
2023/08/14 01:52:24;;;;;;;1.40;0.90;;;22.70;72.50;;;;;;5062724;28;20075;-62
2023/08/14 01:54:50;;;;;;;1.83;1.00;;;22.70;72.50;;;;;;5055933;28;20041;-63
2023/08/14 01:57:15;;;;;;;2.50;1.00;;;22.70;72.50;;;;;;5052606;28;20446;-62
2023/08/14 01:59:43;;;;;;;1.60;0.90;;;22.70;72.50;;;;;;5051461;28;20037;-63
2023/08/14 02:02:09;;;;;;;1.60;0.90;;;22.70;72.40;;;;;;5052952;28;20200;-63
2023/08/14 02:04:35;;;;;;;1.80;0.70;;;22.70;72.50;;;;;;5067411;28;20048;-63
2023/08/14 02:07:00;;;;;;;1.30;0.82;;;22.70;72.40;;;;;;5051715;28;20454;-62
2023/08/14 02:09:26;;;;;;;1.27;0.73;;;22.70;72.50;;;;;;5052712;28;20033;-63
2023/08/14 02:11:51;;;;;;;3.28;1.10;;;22.70;72.40;;;;;;5050972;28;20045;-63
2023/08/14 02:14:17;;;;;;;1.48;0.98;;;22.70;72.40;;;;;;5052108;28;20051;-62
2023/08/14 02:16:42;;;;;;;1.30;0.80;;;22.70;72.40;;;;;;5052398;28;20084;-62
2023/08/14 02:19:08;;;;;;;1.70;0.90;;;22.70;72.40;;;;;;5051486;28;20054;-62
2023/08/14 02:21:34;;;;;;;3.10;0.88;;;22.70;72.40;;;;;;5051422;28;20036;-62
2023/08/14 02:23:59;;;;;;;1.30;0.70;;;22.60;72.30;;;;;;5052094;28;20041;-62
2023/08/14 02:26:25;;;;;;;2.65;0.90;;;22.60;72.30;;;;;;5052466;28;20095;-62
2023/08/14 02:28:52;;;;;;;1.30;0.70;;;22.60;72.30;;;;;;5051266;28;20120;-62
2023/08/14 02:31:17;;;;;;;4.10;1.30;;;22.60;72.30;;;;;;5051171;28;20060;-62
2023/08/14 02:33:43;;;;;;;0.95;0.60;;;22.70;72.30;;;;;;5052336;28;20143;-62
2023/08/14 02:36:09;;;;;;;2.15;1.02;;;22.60;72.30;;;;;;5055600;28;20144;-62
2023/08/14 02:38:35;;;;;;;1.50;0.75;;;22.60;72.30;;;;;;5056215;28;20427;-62
2023/08/14 02:41:04;;;;;;;1.52;0.85;;;22.60;72.30;;;;;;5055214;28;20056;-62
2023/08/14 02:43:30;;;;;;;1.30;0.80;;;22.60;72.30;;;;;;5055447;28;20052;-62
2023/08/14 02:45:55;;;;;;;2.17;1.05;;;22.60;72.30;;;;;;5054545;28;20045;-62
2023/08/14 02:48:23;;;;;;;2.05;0.75;;;22.60;72.30;;;;;;5056709;28;20045;-62
2023/08/14 02:50:48;;;;;;;1.93;0.90;;;22.60;72.20;;;;;;5055179;28;20045;-62
2023/08/14 02:53:14;;;;;;;1.50;0.65;;;22.60;72.30;;;;;;5055928;28;20670;-62
2023/08/14 02:55:39;;;;;;;1.15;0.88;;;22.60;72.20;;;;;;5055020;28;20037;-62
2023/08/14 02:58:05;;;;;;;1.85;0.90;;;22.60;72.30;;;;;;5055974;28;20057;-62
2023/08/14 03:00:31;;;;;;;1.58;0.90;;;22.60;72.20;;;;;;5055785;28;20037;-62
2023/08/14 03:02:56;;;;;;;3.25;0.90;;;22.60;72.20;;;;;;5055111;28;20429;-62
2023/08/14 03:05:22;;;;;;;1.20;0.70;;;22.60;72.20;;;;;;5056047;28;20064;-62
2023/08/14 03:07:47;;;;;;;2.45;0.90;;;22.60;72.20;;;;;;5055628;28;20068;-62
2023/08/14 03:10:13;;;;;;;2.20;0.73;;;22.60;72.20;;;;;;5055112;28;20400;-62
2023/08/14 03:12:38;;;;;;;1.65;0.95;;;22.60;72.20;;;;;;5054195;28;20084;-62
2023/08/14 03:15:05;;;;;;;1.17;0.80;;;22.60;72.20;;;;;;5055827;28;20065;-62
2023/08/14 03:17:31;;;;;;;1.40;0.90;;;22.50;72.20;;;;;;5055212;28;20040;-62
2023/08/14 03:19:56;;;;;;;1.10;0.70;;;22.60;72.20;;;;;;5055478;28;20039;-62
2023/08/14 03:22:22;;;;;;;1.35;0.73;;;22.60;72.20;;;;;;5055891;28;20077;-62
2023/08/14 03:24:47;;;;;;;1.77;1.10;;;22.60;72.20;;;;;;5054009;28;20041;-62
2023/08/14 03:27:13;;;;;;;1.35;1.00;;;22.60;72.20;;;;;;5054120;28;20132;-62
2023/08/14 03:29:39;;;;;;;1.58;0.90;;;22.50;72.10;;;;;;5055356;28;20044;-62
2023/08/14 03:32:04;;;;;;;1.75;0.90;;;22.60;72.20;;;;;;5054669;28;20076;-62
2023/08/14 03:34:30;;;;;;;1.48;0.85;;;22.60;72.20;;;;;;5055113;28;20081;-62
2023/08/14 03:36:56;;;;;;;1.25;1.02;;;22.50;72.10;;;;;;5053834;28;20049;-62
2023/08/14 03:39:22;;;;;;;1.80;0.73;;;22.50;72.10;;;;;;5054158;28;20433;-62
2023/08/14 03:41:47;;;;;;;1.35;0.82;;;22.50;72.10;;;;;;5054850;28;20091;-63
2023/08/14 03:44:13;;;;;;;1.30;0.77;;;22.50;72.10;;;;;;5055403;28;20389;-63
2023/08/14 03:46:38;;;;;;;2.17;0.80;;;22.50;72.10;;;;;;5052596;28;20045;-63
2023/08/14 03:49:05;;;;;;;1.88;0.90;;;22.50;72.40;;;;;;5055514;28;20040;-63
2023/08/14 03:51:30;;;;;;;1.65;0.80;;;22.50;72.10;;;;;;5053692;28;20052;-62
2023/08/14 03:53:56;;;;;;;2.03;0.90;;;22.50;72.10;;;;;;5053869;28;20037;-63
2023/08/14 03:56:22;;;;;;;1.60;0.82;;;22.50;72.10;;;;;;5055090;28;20040;-62
2023/08/14 03:58:47;;;;;;;1.38;0.80;;;22.50;72.10;;;;;;5054752;28;20048;-63
2023/08/14 04:01:13;;;;;;;2.95;0.95;;;22.50;72.10;;;;;;5059355;28;20541;-63
2023/08/14 04:03:38;;;;;;;1.25;0.60;;;22.50;72.00;;;;;;5074621;28;20121;-63
2023/08/14 04:06:04;;;;;;;1.15;0.82;;;22.50;72.10;;;;;;5073483;28;20384;-62
2023/08/14 04:08:30;;;;;;;1.98;0.77;;;22.50;72.00;;;;;;5074251;28;20101;-62
2023/08/14 04:10:57;;;;;;;1.00;0.80;;;22.50;72.10;;;;;;5074318;28;20055;-62
2023/08/14 04:13:26;;;;;;;1.65;0.90;;;22.50;72.00;;;;;;5074232;28;20452;-62
2023/08/14 04:15:59;;;;;;;1.75;1.00;;;22.50;72.00;;;;;;5073159;28;20453;-63
2023/08/14 04:18:28;;;;;;;1.15;0.70;;;22.50;72.00;;;;;;5058103;28;20048;-63
2023/08/14 04:20:54;;;;;;;1.50;0.93;;;22.50;72.00;;;;;;5073526;28;20475;-62
2023/08/14 04:23:19;;;;;;;0.93;0.70;;;22.50;72.00;;;;;;5074452;28;20124;-63
2023/08/14 04:25:45;;;;;;;1.13;0.70;;;22.50;72.00;;;;;;5074316;28;20044;-62
2023/08/14 04:28:10;;;;;;;2.25;0.95;;;22.50;72.00;;;;;;5073634;28;20052;-62
2023/08/14 04:30:36;;;;;;;1.88;0.95;;;22.50;71.90;;;;;;5074030;28;20531;-63
2023/08/14 04:33:02;;;;;;;1.20;0.70;;;22.50;72.00;;;;;;5074313;28;20056;-62
2023/08/14 04:35:27;;;;;;;2.03;0.90;;;22.50;71.90;;;;;;5073515;28;20122;-62
2023/08/14 04:37:53;;;;;;;1.67;0.80;;;22.50;72.00;;;;;;5072262;28;20391;-62
2023/08/14 04:40:18;;;;;;;1.70;0.80;;;22.50;72.00;;;;;;5073884;28;20048;-62
2023/08/14 04:42:44;;;;;;;1.60;0.90;;;22.50;71.90;;;;;;5072980;28;20045;-62
2023/08/14 04:45:10;;;;;;;1.17;0.80;;;22.40;71.90;;;;;;5073966;28;20043;-63
2023/08/14 04:47:35;;;;;;;1.52;0.90;;;22.40;71.90;;;;;;5073924;28;20044;-62
2023/08/14 04:50:01;;;;;;;1.10;0.77;;;22.40;71.90;;;;;;5073371;28;20083;-62
2023/08/14 04:52:26;;;;;;;1.40;0.70;;;22.40;71.90;;;;;;5074090;28;20509;-62
2023/08/14 04:54:52;;;;;;;0.90;0.65;;;22.40;71.90;;;;;;5072777;28;20059;-62
2023/08/14 04:57:18;;;;;;;2.15;1.10;;;22.40;71.90;;;;;;5072168;28;20045;-62
2023/08/14 04:59:43;;;;;;;1.30;0.80;;;22.40;71.90;;;;;;5073573;28;20067;-61
2023/08/14 05:02:09;;;;;;;3.58;1.00;;;22.40;71.90;;;;;;5073723;28;20064;-61
2023/08/14 05:04:34;;;;;;;1.67;0.80;;;22.40;71.90;;;;;;5072532;28;20045;-61
2023/08/14 05:07:00;;;;;;;1.20;0.90;;;22.40;71.90;;;;;;5073302;28;20102;-62
2023/08/14 05:09:25;;;;;;;1.77;0.93;;;22.40;71.80;;;;;;5071145;28;20041;-61
2023/08/14 05:11:51;;;;;;;3.53;1.10;;;22.40;71.80;;;;;;5073361;28;20040;-61
2023/08/14 05:14:18;;;;;;;1.10;0.88;;;22.50;71.90;;;;;;5073700;28;20450;-61
2023/08/14 05:16:47;;;;;;;1.80;0.90;;;22.50;71.90;;;;;;5072447;28;20064;-61
2023/08/14 05:19:12;;;;;;;2.28;0.80;;;22.50;71.80;;;;;;5072045;28;20041;-60
2023/08/14 05:21:38;;;;;;;1.95;0.90;;;22.50;71.90;;;;;;5072379;28;20055;-61
2023/08/14 05:24:04;;;;;;;1.85;0.88;;;22.50;71.90;;;;;;5072750;28;20047;-61
2023/08/14 05:26:29;;;;;;;5.47;1.00;;;22.50;71.80;;;;;;5105272;28;20048;-60
2023/08/14 05:28:55;;;;;;;2.20;0.80;;;22.50;71.80;;;;;;5071906;28;20080;-61
2023/08/14 05:31:21;;;;;;;3.08;0.95;;;22.50;71.80;;;;;;5072308;28;20036;-61
2023/08/14 05:33:46;;;;;;;2.15;0.80;;;22.50;71.80;;;;;;5070748;28;20048;-61
2023/08/14 05:36:12;;;;;;;3.40;1.00;;;22.60;71.90;;;;;;5071209;28;20044;-60
2023/08/14 05:38:37;;;;;;;2.20;0.98;;;22.60;71.80;;;;;;5071413;28;20045;-61
2023/08/14 05:41:03;;;;;;;1.92;0.80;;;22.60;71.80;;;;;;5072779;28;20032;-61
2023/08/14 05:43:28;;;;;;;2.53;0.82;;;22.60;71.80;;;;;;5070868;28;20131;-61
2023/08/14 05:45:54;;;;;;;2.45;0.95;;;22.60;71.80;;;;;;5070936;28;20036;-61
2023/08/14 05:48:21;;;;;;;2.38;1.23;;;22.60;71.90;;;;;;5072453;28;20449;-61
2023/08/14 05:50:48;;;;;;;3.05;1.30;;;22.70;71.90;;;;;;5071937;28;20037;-62
2023/08/14 05:53:14;;;;;;;1.93;1.03;;;22.60;72.10;;;;;;5072211;28;20116;-61
2023/08/14 05:55:41;;;;;;;4.38;1.20;;;22.60;72.20;;;;;;5072879;28;20173;-62
2023/08/14 05:58:06;;;;;;;1.98;0.90;;;22.70;72.30;;;;;;5071480;28;20040;-62
2023/08/14 06:00:32;;;;;;;4.03;1.10;;;22.70;72.30;;;;;;5072077;28;20049;-63
2023/08/14 06:02:58;;;;;;;4.10;1.00;;;22.60;72.30;;;;;;5072596;28;20036;-61
2023/08/14 06:05:24;;;;;;;3.20;1.30;;;22.70;72.40;;;;;;5072267;28;20056;-61
2023/08/14 06:07:50;;;;;;;2.67;1.10;;;22.70;72.30;;;;;;5071739;28;20037;-62
2023/08/14 06:10:16;;;;;;;4.18;1.33;;;22.60;72.20;;;;;;5072549;28;20052;-62
2023/08/14 06:12:42;;;;;;;3.85;1.10;;;22.60;72.40;;;;;;5070403;28;20029;-62
2023/08/14 06:15:08;;;;;;;3.05;1.00;;;22.60;72.40;;;;;;5071303;28;20045;-61
2023/08/14 06:17:34;;;;;;;1.55;0.85;;;22.70;72.50;;;;;;5071171;28;20085;-61
2023/08/14 06:20:00;;;;;;;3.65;1.10;;;22.60;72.50;;;;;;5071685;28;20127;-61
2023/08/14 06:22:25;;;;;;;2.75;1.30;;;22.70;72.60;;;;;;5072183;28;20044;-61
2023/08/14 06:24:51;;;;;;;5.18;1.40;;;22.70;72.60;;;;;;5071837;28;20543;-62
2023/08/14 06:27:17;;;;;;;3.22;1.25;;;22.70;72.60;;;;;;5071812;28;20523;-61
2023/08/14 06:29:42;;;;;;;3.47;1.40;;;22.70;72.60;;;;;;5072164;28;20037;-62
2023/08/14 06:32:08;;;;;;;2.17;0.90;;;22.70;73.20;;;;;;5072708;28;20037;-64
2023/08/14 06:34:34;;;;;;;6.88;1.42;;;22.70;72.50;;;;;;5068626;28;20136;-62
2023/08/14 06:36:59;;;;;;;1.30;0.90;;;22.70;72.60;;;;;;5069345;28;20102;-61
2023/08/14 06:39:25;;;;;;;4.07;1.17;;;22.70;72.80;;;;;;5068974;28;20040;-61
2023/08/14 06:41:51;;;;;;;3.80;1.10;;;22.70;72.80;;;;;;5067827;28;20548;-61
2023/08/14 06:44:16;;;;;;;3.97;1.15;;;22.70;72.90;;;;;;5070438;28;20053;-61
2023/08/14 06:46:42;;;;;;;1.92;1.05;;;22.80;73.00;;;;;;5071696;28;20067;-61
2023/08/14 06:49:10;;;;;;;2.80;1.20;;;22.80;73.10;;;;;;5070000;28;20048;-60
2023/08/14 06:51:35;;;;;;;3.30;1.30;;;22.80;73.00;;;;;;5071949;28;20087;-60
2023/08/14 06:54:01;;;;;;;3.33;1.25;;;22.70;73.00;;;;;;5070880;28;20068;-60
2023/08/14 06:56:26;;;;;;;2.42;1.10;;;22.80;73.10;;;;;;5069306;28;20040;-60
2023/08/14 06:58:52;;;;;;;2.58;1.20;;;22.80;73.10;;;;;;5071979;28;20043;-60
2023/08/14 07:01:19;;;;;;;2.90;1.40;;;22.80;73.20;;;;;;5071773;28;20040;-60
2023/08/14 07:03:44;;;;;;;3.58;1.27;;;22.80;73.20;;;;;;5070784;28;20403;-60
2023/08/14 07:06:10;;;;;;;5.53;1.40;;;22.80;73.20;;;;;;5069940;28;20048;-60
2023/08/14 07:08:36;;;;;;;4.32;1.17;;;22.80;73.30;;;;;;5071691;28;20044;-60
2023/08/14 07:11:01;;;;;;;3.28;1.55;;;22.80;73.20;;;;;;5071332;28;20040;-59
2023/08/14 07:13:27;;;;;;;2.53;1.20;;;22.80;73.20;;;;;;5071872;28;20148;-60
2023/08/14 07:15:52;;;;;;;4.15;1.00;;;22.80;73.20;;;;;;5068902;28;20520;-60
2023/08/14 07:18:18;;;;;;;3.80;1.33;;;22.80;73.30;;;;;;5071964;28;20032;-59
2023/08/14 07:20:45;;;;;;;5.07;1.48;;;22.80;73.30;;;;;;5073756;28;20117;-60
2023/08/14 07:23:20;;;;;;;3.50;1.10;;;22.80;73.30;;;;;;5074669;28;20094;-60
2023/08/14 07:25:46;;;;;;;5.03;1.20;;;22.80;73.40;;;;;;5075576;28;20182;-61
2023/08/14 07:28:12;;;;;;;2.47;1.10;;;22.80;73.40;;;;;;5075408;28;20535;-61
2023/08/14 07:30:38;;;;;;;1.73;1.10;;;22.80;73.40;;;;;;5074205;28;20447;-61
2023/08/14 07:33:04;;;;;;;1.88;1.10;;;22.80;73.40;;;;;;5074981;28;20099;-60
2023/08/14 07:35:30;;;;;;;3.15;1.20;;;22.80;73.50;;;;;;5074553;28;20052;-60
2023/08/14 07:37:58;;;;;;;3.35;1.40;;;22.80;73.50;;;;;;5074111;28;20091;-60
2023/08/14 07:40:24;;;;;;;2.60;1.10;;;22.80;73.50;;;;;;5075287;28;20067;-60
2023/08/14 07:42:49;;;;;;;2.40;1.13;;;22.80;73.50;;;;;;5074540;28;20044;-60
2023/08/14 07:45:15;;;;;;;2.20;1.20;;;22.80;73.60;;;;;;5074596;28;20048;-60
2023/08/14 07:47:41;;;;;;;3.35;1.35;;;22.80;73.50;;;;;;5074657;28;20044;-60
2023/08/14 07:50:07;;;;;;;3.08;1.20;;;22.80;73.60;;;;;;5073399;28;20175;-60
2023/08/14 07:52:34;;;;;;;1.65;0.95;;;22.80;73.60;;;;;;5066671;28;20111;-60
2023/08/14 07:55:00;;;;;;;3.22;1.38;;;22.80;73.60;;;;;;5062644;28;20052;-60
2023/08/14 07:57:26;;;;;;;3.42;1.00;;;22.80;73.60;;;;;;5066234;28;20131;-60
2023/08/14 07:59:52;;;;;;;3.25;1.30;;;22.80;73.60;;;;;;5067751;28;20496;-60
2023/08/14 08:02:18;;;;;;;2.88;1.10;;;22.80;73.60;;;;;;5073676;28;20087;-58
2023/08/14 08:04:43;;;;;;;2.80;1.10;;;22.80;73.50;;;;;;5072244;28;20040;-59
2023/08/14 08:07:09;;;;;;;3.25;1.20;;;22.80;73.50;;;;;;5073928;28;20068;-60
2023/08/14 08:09:34;;;;;;;4.18;1.00;;;22.80;73.40;;;;;;5073849;28;20037;-60
2023/08/14 08:12:00;;;;;;;2.55;1.20;;;22.90;73.30;;;;;;5074655;28;20047;-60
2023/08/14 08:14:26;;;;;;;5.95;1.42;;;22.90;73.30;;;;;;5073969;28;20526;-60
2023/08/14 08:16:51;;;;;;;7.18;1.52;;;22.80;73.20;;;;;;5074457;28;20472;-61
2023/08/14 08:19:18;;;;;;;3.15;1.17;;;22.90;73.30;;;;;;5073714;28;20131;-61
2023/08/14 08:21:43;;;;;;;3.47;1.33;;;22.90;73.20;;;;;;5073678;28;20067;-61
2023/08/14 08:24:09;;;;;;;3.53;1.27;;;22.90;73.30;;;;;;5074290;28;20068;-61
2023/08/14 08:26:35;;;;;;;4.22;1.17;;;22.90;74.10;;;;;;5072788;28;20048;-60
2023/08/14 08:29:01;;;;;;;4.90;1.52;;;22.90;73.40;;;;;;5074043;28;20040;-62
2023/08/14 08:31:26;;;;;;;4.03;1.33;;;22.90;73.30;;;;;;5072261;28;20048;-61
2023/08/14 08:33:52;;;;;;;4.95;1.50;;;22.90;73.40;;;;;;5072647;28;20075;-61
2023/08/14 08:36:17;;;;;;;4.95;1.30;;;22.90;73.50;;;;;;5073745;28;20056;-61
2023/08/14 08:38:47;;;;;;;5.70;1.60;;;22.90;73.70;;;;;;5073112;28;20170;-61
2023/08/14 08:41:13;;;;;;;6.88;1.40;;;22.90;73.70;;;;;;5072674;28;20124;-61
2023/08/14 08:43:40;;;;;;;5.72;1.35;;;22.90;73.80;;;;;;5072622;28;20400;-61
2023/08/14 08:46:08;;;;;;;7.47;1.40;;;22.90;73.60;;;;;;5073328;28;20070;-61
2023/08/14 08:48:34;;;;;;;5.97;1.60;;;22.90;73.50;;;;;;5070389;28;20056;-61
2023/08/14 08:50:59;;;;;;;3.80;1.27;;;22.90;73.50;;;;;;5072191;28;20466;-61
2023/08/14 08:53:25;;;;;;;4.97;1.33;;;23.00;73.50;;;;;;5072090;28;20043;-62
2023/08/14 08:55:51;;;;;;;3.90;1.17;;;23.00;73.50;;;;;;5072200;28;20032;-61
2023/08/14 08:58:16;;;;;;;4.95;1.55;;;23.00;73.50;;;;;;5073446;28;20397;-61
2023/08/14 09:00:43;;;;;;;5.07;1.60;;;22.90;73.40;;;;;;5073640;28;20033;-62
2023/08/14 09:03:09;;;;;;;5.30;1.40;;;23.00;73.50;;;;;;5072595;28;20522;-61
2023/08/14 09:05:35;;;;;;;5.85;1.30;;;23.00;73.40;;;;;;5065674;28;20041;-61
2023/08/14 09:08:01;;;;;;;3.58;1.40;;;23.00;73.40;;;;;;5050858;28;20412;-61
2023/08/14 09:10:27;;;;;;;5.22;1.50;;;23.00;73.40;;;;;;5070860;28;20492;-61
2023/08/14 09:12:53;;;;;;;4.63;1.20;;;23.00;73.30;;;;;;5054709;28;20048;-62
2023/08/14 09:15:21;;;;;;;5.03;1.20;;;23.00;73.30;;;;;;5071491;28;20041;-61
2023/08/14 09:17:46;;;;;;;4.28;1.42;;;23.00;73.40;;;;;;5070800;28;20058;-61
2023/08/14 09:20:15;;;;;;;5.35;1.30;;;23.00;73.40;;;;;;5071556;28;20048;-61
2023/08/14 09:22:40;;;;;;;4.10;1.10;;;23.00;73.40;;;;;;5070554;28;20064;-61
2023/08/14 09:25:06;;;;;;;3.63;1.25;;;23.00;73.30;;;;;;5073266;28;20087;-61
2023/08/14 09:27:32;;;;;;;6.30;1.50;;;23.00;73.90;;;;;;5071595;28;20037;-61
2023/08/14 09:29:57;;;;;;;3.15;0.90;;;23.00;73.30;;;;;;5070333;28;20047;-61
2023/08/14 09:32:23;;;;;;;4.97;1.33;;;23.00;73.30;;;;;;5072824;28;20040;-62
2023/08/14 09:34:57;;;;;;;5.63;1.45;;;23.00;73.30;;;;;;5070920;28;20128;-61
2023/08/14 09:37:23;;;;;;;3.40;1.08;;;23.00;73.30;;;;;;5054569;28;20049;-61
2023/08/14 09:39:49;;;;;;;2.25;1.23;;;23.00;73.30;;;;;;5070932;28;20044;-61
2023/08/14 09:42:15;;;;;;;3.97;1.30;;;23.00;73.30;;;;;;5054942;28;20067;-61
2023/08/14 09:44:41;;;;;;;2.47;1.13;;;23.00;73.20;;;;;;5071730;28;20405;-61
2023/08/14 09:47:06;;;;;;;2.45;1.20;;;23.00;73.20;;;;;;5072680;28;20388;-61
2023/08/14 09:49:32;;;;;;;3.15;1.40;;;23.00;73.20;;;;;;5072627;28;20407;-61
2023/08/14 09:51:58;;;;;;;1.83;1.10;;;23.00;73.20;;;;;;5070064;28;20119;-61
2023/08/14 09:54:33;;;;;;;3.55;1.25;;;23.00;73.20;;;;;;5072584;28;20041;-61
2023/08/14 09:56:59;;;;;;;3.92;1.13;;;23.00;73.20;;;;;;5070402;28;20044;-61
2023/08/14 09:59:26;;;;;;;2.47;1.10;;;23.00;73.20;;;;;;5063860;28;20117;-62
2023/08/14 10:01:53;;;;;;;4.38;1.40;;;23.00;73.20;;;;;;5054481;28;20495;-61
2023/08/14 10:04:19;;;;;;;3.10;1.20;;;23.00;73.20;;;;;;5072740;28;20041;-61
2023/08/14 10:06:45;;;;;;;3.58;1.20;;;23.00;73.20;;;;;;5069877;28;20048;-61
2023/08/14 10:09:10;;;;;;;3.80;1.23;;;23.00;73.10;;;;;;5054673;28;20048;-61
2023/08/14 10:11:36;;;;;;;4.35;1.30;;;23.00;73.20;;;;;;5072245;28;20040;-61
2023/08/14 10:14:03;;;;;;;3.58;1.25;;;23.00;73.10;;;;;;5070285;28;20036;-61
2023/08/14 10:16:31;;;;;;;2.97;1.30;;;23.00;73.20;;;;;;5052707;28;20052;-60
2023/08/14 10:18:56;;;;;;;;;;;23.00;73.00;;;;;;5053180;28;20105;-61
2023/08/14 10:21:26;;;;;;;2.10;0.90;;;23.00;73.00;;;;;;5071137;28;19924;-62
2023/08/14 10:23:52;;;;;;;3.38;1.17;;;23.00;73.00;;;;;;5050863;28;20087;-60
2023/08/14 10:26:17;;;;;;;4.78;1.30;;;23.00;73.00;;;;;;5051415;28;20476;-61
2023/08/14 10:28:43;;;;;;;6.03;1.40;;;23.00;73.00;;;;;;5049784;28;20055;-61
2023/08/14 10:31:09;;;;;;;3.72;1.30;;;23.00;73.20;;;;;;5072494;28;20083;-61
2023/08/14 10:33:35;;;;;;;4.78;1.40;;;23.00;73.30;;;;;;5070374;28;20088;-61
2023/08/14 10:36:00;;;;;;;4.70;1.23;;;23.00;73.30;;;;;;5070808;28;20072;-61
2023/08/14 10:38:43;;;;;;;3.78;1.45;;;23.00;73.30;;;;;;5071444;28;20044;-61
2023/08/14 10:41:09;;;;;;;4.97;1.50;;;23.10;73.30;;;;;;5071287;28;20044;-61
2023/08/14 10:43:35;;;;;;;3.22;1.30;;;23.10;73.30;;;;;;5071309;28;20043;-61
2023/08/14 10:46:13;;;;;;;5.00;1.33;;;23.10;73.20;;;;;;5070418;28;20043;-61
2023/08/14 10:48:39;;;;;;;2.85;1.10;;;23.10;73.30;;;;;;5070736;28;20481;-61
2023/08/14 10:51:08;;;;;;;3.22;1.20;;;23.10;73.30;;;;;;5070640;28;20053;-61
2023/08/14 10:53:34;;;;;;;3.17;1.30;;;23.10;73.30;;;;;;5071504;28;20479;-61
2023/08/14 10:56:00;;;;;;;3.90;1.40;;;23.10;73.20;;;;;;5074100;28;20495;-61
2023/08/14 10:58:29;;;;;;;6.50;1.40;;;23.10;73.20;;;;;;5075894;28;20045;-61
2023/08/14 11:00:55;;;;;;;2.33;1.30;;;23.10;73.20;;;;;;5075393;28;20052;-61
2023/08/14 11:03:20;;;;;;;3.33;1.45;;;23.10;73.20;;;;;;5074413;28;20048;-61
2023/08/14 11:05:46;;;;;;;4.22;1.48;;;23.10;73.20;;;;;;5075663;28;20044;-61
2023/08/14 11:08:12;;;;;;;4.38;1.50;;;23.10;73.20;;;;;;5037156;28;20080;-61
2023/08/14 11:10:38;;;;;;;4.70;1.55;;;23.10;73.00;;;;;;5055522;28;20033;-61
2023/08/14 11:13:11;;;;;;;5.88;1.50;;;23.10;72.80;;;;;;5068939;28;20047;-61
2023/08/14 11:15:39;;;;;;;5.22;1.42;;;23.10;72.70;;;;;;5057197;28;20041;-61
2023/08/14 11:18:09;;;;;;;5.43;1.40;;;23.10;72.60;;;;;;5095255;28;20395;-61
2023/08/14 11:20:37;;;;;;;3.20;1.30;;;23.10;72.50;;;;;;5058737;28;20041;-61
2023/08/14 11:23:03;;;;;;;2.83;1.10;;;23.10;72.60;;;;;;5063901;28;20040;-61
2023/08/14 11:25:28;;;;;;;3.30;1.30;;;23.10;72.50;;;;;;5074601;28;20050;-61
2023/08/14 11:27:54;;;;;;;4.93;1.60;;;23.10;72.40;;;;;;5073717;28;20040;-60
2023/08/14 11:30:22;;;;;;;4.25;1.15;;;23.20;72.40;;;;;;5074229;28;20037;-61
2023/08/14 11:32:47;;;;;;;5.65;1.40;;;23.20;72.40;;;;;;5074475;28;20057;-64
2023/08/14 11:35:13;;;;;;;4.18;1.55;;;23.20;72.30;;;;;;5074942;28;20044;-60
2023/08/14 11:37:38;;;;;;;8.40;1.90;;;23.20;72.90;;;;;;5073743;28;20080;-72
2023/08/14 11:40:09;;;;;;;2.72;1.48;;;23.20;72.20;;;;;;5074196;28;20063;-61
2023/08/14 11:42:34;;;;;;;4.93;1.55;;;23.20;72.20;;;;;;5070271;28;20036;-61
2023/08/14 11:45:03;;;;;;;5.35;1.73;;;23.20;72.10;;;;;;5073819;28;20042;-61
2023/08/14 11:47:31;;;;;;;5.25;1.80;;;23.20;72.00;;;;;;5074554;28;20040;-61
2023/08/14 11:49:57;;;;;;;3.45;1.40;;;23.20;71.90;;;;;;5073067;28;20146;-61
2023/08/14 11:52:23;;;;;;;5.38;1.55;;;23.30;72.00;;;;;;5071250;28;20112;-61
2023/08/14 11:54:48;;;;;;;7.10;1.48;;;23.30;72.00;;;;;;5072748;28;20033;-61
2023/08/14 11:57:14;;;;;;;7.45;1.70;;;23.30;71.90;;;;;;5064251;28;20040;-61
2023/08/14 11:59:40;;;;;;;4.88;1.40;;;23.30;71.90;;;;;;5056980;28;20033;-61
2023/08/14 12:02:07;;;;;;;4.15;1.80;;;23.30;71.90;;;;;;5054508;28;20041;-61
2023/08/14 12:04:33;;;;;;;6.82;1.73;;;23.30;71.90;;;;;;5087856;28;20152;-61
2023/08/14 12:06:58;;;;;;;4.53;1.33;;;23.30;71.90;;;;;;5036332;28;20132;-62
2023/08/14 12:09:27;;;;;;;4.22;1.70;;;23.30;72.10;;;;;;5057217;28;20103;-61
2023/08/14 12:11:53;;;;;;;5.50;1.42;;;23.30;72.20;;;;;;5053147;28;20037;-61
2023/08/14 12:14:18;;;;;;;5.00;1.50;;;23.30;72.20;;;;;;5087537;28;20453;-61
2023/08/14 12:16:44;;;;;;;5.43;1.50;;;23.30;72.30;;;;;;5073067;28;20149;-61
2023/08/14 12:19:11;;;;;;;5.32;1.48;;;23.30;72.20;;;;;;5073244;28;20053;-62
2023/08/14 12:21:36;;;;;;;4.78;1.88;;;23.30;72.20;;;;;;5074253;28;20044;-62
2023/08/14 12:24:02;;;;;;;6.35;1.55;;;23.30;72.40;;;;;;5072744;28;20085;-62
2023/08/14 12:26:39;;;;;;;3.17;1.38;;;23.30;72.40;;;;;;5073502;28;20089;-60
2023/08/14 12:29:05;;;;;;;4.60;1.85;;;23.40;72.30;;;;;;5074068;28;20036;-62
2023/08/14 12:31:30;;;;;;;6.38;1.55;;;23.40;72.30;;;;;;5072687;28;20037;-62
2023/08/14 12:33:56;;;;;;;6.05;1.30;;;23.40;73.00;;;;;;5072104;28;20137;-62
2023/08/14 12:36:21;;;;;;;4.45;1.70;;;23.40;72.40;;;;;;5073779;28;20036;-62
2023/08/14 12:38:47;;;;;;;4.18;1.60;;;23.40;72.40;;;;;;5071729;28;20491;-62
2023/08/14 12:41:12;;;;;;;4.15;1.67;;;23.40;72.40;;;;;;5072585;28;20040;-62
2023/08/14 12:43:38;;;;;;;3.95;1.65;;;23.40;72.40;;;;;;5072842;28;20567;-61